sensor_id;sensor_type;location;lat;lon;timestamp;P1;durP1;ratioP1;P2;durP2;ratioP2
8036;SDS011;4061;51.360;7.340;2022-08-01T00:02:00;21.40;;;10.63;;
8036;SDS011;4061;51.360;7.340;2022-08-01T00:04:27;15.73;;;10.05;;
8036;SDS011;4061;51.360;7.340;2022-08-01T00:06:54;14.38;;;8.80;;
8036;SDS011;4061;51.360;7.340;2022-08-01T00:09:21;10.95;;;8.00;;
8036;SDS011;4061;51.360;7.340;2022-08-01T00:11:49;14.75;;;7.10;;
8036;SDS011;4061;51.360;7.340;2022-08-01T00:14:16;9.75;;;6.75;;
8036;SDS011;4061;51.360;7.340;2022-08-01T00:16:43;11.13;;;6.13;;
8036;SDS011;4061;51.360;7.340;2022-08-01T00:19:11;6.80;;;5.78;;
8036;SDS011;4061;51.360;7.340;2022-08-01T00:21:39;14.65;;;7.40;;
8036;SDS011;4061;51.360;7.340;2022-08-01T00:24:06;7.07;;;6.38;;
8036;SDS011;4061;51.360;7.340;2022-08-01T00:26:33;10.07;;;6.63;;
8036;SDS011;4061;51.360;7.340;2022-08-01T00:29:00;13.82;;;7.15;;
8036;SDS011;4061;51.360;7.340;2022-08-01T00:31:27;11.25;;;7.18;;
8036;SDS011;4061;51.360;7.340;2022-08-01T00:33:54;14.93;;;8.95;;
8036;SDS011;4061;51.360;7.340;2022-08-01T00:36:23;9.88;;;7.78;;
8036;SDS011;4061;51.360;7.340;2022-08-01T00:38:50;12.50;;;8.85;;
8036;SDS011;4061;51.360;7.340;2022-08-01T00:41:17;12.68;;;8.23;;
8036;SDS011;4061;51.360;7.340;2022-08-01T00:43:44;9.43;;;7.43;;
8036;SDS011;4061;51.360;7.340;2022-08-01T00:46:11;12.35;;;8.25;;
8036;SDS011;4061;51.360;7.340;2022-08-01T00:48:38;13.07;;;8.27;;
8036;SDS011;4061;51.360;7.340;2022-08-01T00:51:06;14.23;;;8.75;;
8036;SDS011;4061;51.360;7.340;2022-08-01T00:53:36;16.33;;;10.98;;
8036;SDS011;4061;51.360;7.340;2022-08-01T00:56:03;15.13;;;10.05;;
8036;SDS011;4061;51.360;7.340;2022-08-01T00:58:31;22.00;;;12.18;;
8036;SDS011;4061;51.360;7.340;2022-08-01T01:00:58;19.55;;;11.93;;
8036;SDS011;4061;51.360;7.340;2022-08-01T01:03:26;22.15;;;13.35;;
8036;SDS011;4061;51.360;7.340;2022-08-01T01:05:55;27.30;;;13.77;;
8036;SDS011;4061;51.360;7.340;2022-08-01T01:08:27;24.63;;;13.75;;
8036;SDS011;4061;51.360;7.340;2022-08-01T01:11:03;25.17;;;13.35;;
8036;SDS011;4061;51.360;7.340;2022-08-01T01:13:35;22.27;;;14.05;;
8036;SDS011;4061;51.360;7.340;2022-08-01T01:16:05;26.88;;;14.55;;
8036;SDS011;4061;51.360;7.340;2022-08-01T01:18:34;28.83;;;17.02;;
8036;SDS011;4061;51.360;7.340;2022-08-01T01:21:03;25.65;;;15.10;;
8036;SDS011;4061;51.360;7.340;2022-08-01T01:23:46;24.55;;;15.82;;
8036;SDS011;4061;51.360;7.340;2022-08-01T01:26:21;28.42;;;15.98;;
8036;SDS011;4061;51.360;7.340;2022-08-01T01:29:03;31.02;;;16.10;;
8036;SDS011;4061;51.360;7.340;2022-08-01T01:31:31;32.75;;;16.30;;
8036;SDS011;4061;51.360;7.340;2022-08-01T01:34:02;25.13;;;17.08;;
8036;SDS011;4061;51.360;7.340;2022-08-01T01:36:30;30.17;;;17.08;;
8036;SDS011;4061;51.360;7.340;2022-08-01T01:38:57;28.98;;;16.38;;
8036;SDS011;4061;51.360;7.340;2022-08-01T01:41:25;28.25;;;17.05;;
8036;SDS011;4061;51.360;7.340;2022-08-01T01:43:54;29.75;;;17.63;;
8036;SDS011;4061;51.360;7.340;2022-08-01T01:46:24;32.22;;;17.25;;
8036;SDS011;4061;51.360;7.340;2022-08-01T01:48:53;36.70;;;17.63;;
8036;SDS011;4061;51.360;7.340;2022-08-01T01:51:22;33.65;;;17.95;;
8036;SDS011;4061;51.360;7.340;2022-08-01T01:53:49;38.65;;;18.00;;
8036;SDS011;4061;51.360;7.340;2022-08-01T01:56:18;34.20;;;16.23;;
8036;SDS011;4061;51.360;7.340;2022-08-01T01:58:48;38.08;;;16.80;;
8036;SDS011;4061;51.360;7.340;2022-08-01T02:01:17;28.60;;;17.23;;
8036;SDS011;4061;51.360;7.340;2022-08-01T02:03:46;28.75;;;17.02;;
8036;SDS011;4061;51.360;7.340;2022-08-01T02:06:16;34.42;;;17.20;;
8036;SDS011;4061;51.360;7.340;2022-08-01T02:08:43;34.15;;;16.25;;
8036;SDS011;4061;51.360;7.340;2022-08-01T02:11:11;33.15;;;17.00;;
8036;SDS011;4061;51.360;7.340;2022-08-01T02:13:46;30.02;;;17.85;;
8036;SDS011;4061;51.360;7.340;2022-08-01T02:16:18;31.40;;;17.33;;
8036;SDS011;4061;51.360;7.340;2022-08-01T02:18:47;29.33;;;18.02;;
8036;SDS011;4061;51.360;7.340;2022-08-01T02:21:16;34.30;;;16.35;;
8036;SDS011;4061;51.360;7.340;2022-08-01T02:23:45;37.13;;;17.95;;
8036;SDS011;4061;51.360;7.340;2022-08-01T02:26:14;40.30;;;20.38;;
8036;SDS011;4061;51.360;7.340;2022-08-01T02:28:45;44.40;;;20.05;;
8036;SDS011;4061;51.360;7.340;2022-08-01T02:31:16;34.38;;;18.60;;
8036;SDS011;4061;51.360;7.340;2022-08-01T02:33:44;38.85;;;18.90;;
8036;SDS011;4061;51.360;7.340;2022-08-01T02:36:18;35.30;;;18.67;;
8036;SDS011;4061;51.360;7.340;2022-08-01T02:38:46;49.33;;;20.75;;
8036;SDS011;4061;51.360;7.340;2022-08-01T02:41:14;58.63;;;21.65;;
8036;SDS011;4061;51.360;7.340;2022-08-01T02:43:47;38.75;;;19.35;;
8036;SDS011;4061;51.360;7.340;2022-08-01T02:46:20;45.40;;;22.52;;
8036;SDS011;4061;51.360;7.340;2022-08-01T02:48:49;37.63;;;19.40;;
8036;SDS011;4061;51.360;7.340;2022-08-01T02:51:17;54.08;;;23.33;;
8036;SDS011;4061;51.360;7.340;2022-08-01T02:53:44;39.08;;;20.70;;
8036;SDS011;4061;51.360;7.340;2022-08-01T02:56:12;44.15;;;19.98;;
8036;SDS011;4061;51.360;7.340;2022-08-01T02:58:40;41.83;;;19.48;;
8036;SDS011;4061;51.360;7.340;2022-08-01T03:01:08;46.33;;;21.02;;
8036;SDS011;4061;51.360;7.340;2022-08-01T03:03:36;40.13;;;20.15;;
8036;SDS011;4061;51.360;7.340;2022-08-01T03:06:05;49.13;;;20.77;;
8036;SDS011;4061;51.360;7.340;2022-08-01T03:08:34;46.38;;;19.45;;
8036;SDS011;4061;51.360;7.340;2022-08-01T03:11:02;43.90;;;20.58;;
8036;SDS011;4061;51.360;7.340;2022-08-01T03:13:30;39.30;;;19.17;;
8036;SDS011;4061;51.360;7.340;2022-08-01T03:15:58;43.28;;;19.98;;
8036;SDS011;4061;51.360;7.340;2022-08-01T03:18:27;52.90;;;20.08;;
8036;SDS011;4061;51.360;7.340;2022-08-01T03:20:56;42.22;;;19.65;;
8036;SDS011;4061;51.360;7.340;2022-08-01T03:23:26;39.33;;;19.63;;
8036;SDS011;4061;51.360;7.340;2022-08-01T03:25:56;39.00;;;19.95;;
8036;SDS011;4061;51.360;7.340;2022-08-01T03:28:23;46.15;;;21.02;;
8036;SDS011;4061;51.360;7.340;2022-08-01T03:30:51;46.17;;;20.63;;
8036;SDS011;4061;51.360;7.340;2022-08-01T03:33:18;41.83;;;20.98;;
8036;SDS011;4061;51.360;7.340;2022-08-01T03:35:46;41.65;;;19.35;;
8036;SDS011;4061;51.360;7.340;2022-08-01T03:38:17;39.80;;;19.90;;
8036;SDS011;4061;51.360;7.340;2022-08-01T03:40:49;50.15;;;22.23;;
8036;SDS011;4061;51.360;7.340;2022-08-01T03:43:22;45.78;;;20.50;;
8036;SDS011;4061;51.360;7.340;2022-08-01T03:45:50;40.45;;;19.33;;
8036;SDS011;4061;51.360;7.340;2022-08-01T03:48:19;44.35;;;20.58;;
8036;SDS011;4061;51.360;7.340;2022-08-01T03:50:48;44.90;;;20.88;;
8036;SDS011;4061;51.360;7.340;2022-08-01T03:53:18;41.55;;;19.90;;
8036;SDS011;4061;51.360;7.340;2022-08-01T03:55:50;46.28;;;20.02;;
8036;SDS011;4061;51.360;7.340;2022-08-01T03:58:20;37.65;;;20.23;;
8036;SDS011;4061;51.360;7.340;2022-08-01T04:00:48;39.38;;;17.00;;
8036;SDS011;4061;51.360;7.340;2022-08-01T04:03:15;36.83;;;17.70;;
8036;SDS011;4061;51.360;7.340;2022-08-01T04:05:43;33.90;;;16.65;;
8036;SDS011;4061;51.360;7.340;2022-08-01T04:08:10;41.65;;;19.25;;
8036;SDS011;4061;51.360;7.340;2022-08-01T04:10:37;40.78;;;18.80;;
8036;SDS011;4061;51.360;7.340;2022-08-01T04:13:06;36.47;;;18.73;;
8036;SDS011;4061;51.360;7.340;2022-08-01T04:15:33;37.80;;;18.33;;
8036;SDS011;4061;51.360;7.340;2022-08-01T04:18:00;37.80;;;18.13;;
8036;SDS011;4061;51.360;7.340;2022-08-01T04:20:27;43.67;;;19.75;;
8036;SDS011;4061;51.360;7.340;2022-08-01T04:22:54;34.00;;;17.08;;
8036;SDS011;4061;51.360;7.340;2022-08-01T04:25:23;32.58;;;17.45;;
8036;SDS011;4061;51.360;7.340;2022-08-01T04:27:52;43.85;;;18.10;;
8036;SDS011;4061;51.360;7.340;2022-08-01T04:30:22;35.70;;;16.35;;
8036;SDS011;4061;51.360;7.340;2022-08-01T04:32:50;43.10;;;17.90;;
8036;SDS011;4061;51.360;7.340;2022-08-01T04:35:19;44.33;;;18.65;;
8036;SDS011;4061;51.360;7.340;2022-08-01T04:37:47;38.00;;;19.08;;
8036;SDS011;4061;51.360;7.340;2022-08-01T04:40:16;31.92;;;16.98;;
8036;SDS011;4061;51.360;7.340;2022-08-01T04:42:44;34.05;;;15.52;;
8036;SDS011;4061;51.360;7.340;2022-08-01T04:45:13;31.25;;;14.57;;
8036;SDS011;4061;51.360;7.340;2022-08-01T04:47:42;31.38;;;15.05;;
8036;SDS011;4061;51.360;7.340;2022-08-01T04:50:12;29.00;;;13.55;;
8036;SDS011;4061;51.360;7.340;2022-08-01T04:52:40;29.45;;;14.50;;
8036;SDS011;4061;51.360;7.340;2022-08-01T04:55:08;33.28;;;15.10;;
8036;SDS011;4061;51.360;7.340;2022-08-01T04:57:36;27.27;;;13.70;;
8036;SDS011;4061;51.360;7.340;2022-08-01T05:00:06;34.17;;;16.95;;
8036;SDS011;4061;51.360;7.340;2022-08-01T05:02:35;26.85;;;14.65;;
8036;SDS011;4061;51.360;7.340;2022-08-01T05:05:04;44.42;;;16.02;;
8036;SDS011;4061;51.360;7.340;2022-08-01T05:07:32;27.10;;;14.32;;
8036;SDS011;4061;51.360;7.340;2022-08-01T05:10:01;29.45;;;14.73;;
8036;SDS011;4061;51.360;7.340;2022-08-01T05:12:28;32.10;;;15.02;;
8036;SDS011;4061;51.360;7.340;2022-08-01T05:14:56;28.70;;;14.98;;
8036;SDS011;4061;51.360;7.340;2022-08-01T05:17:23;28.63;;;13.63;;
8036;SDS011;4061;51.360;7.340;2022-08-01T05:19:51;26.38;;;13.82;;
8036;SDS011;4061;51.360;7.340;2022-08-01T05:22:19;25.05;;;13.38;;
8036;SDS011;4061;51.360;7.340;2022-08-01T05:24:47;29.15;;;15.57;;
8036;SDS011;4061;51.360;7.340;2022-08-01T05:27:14;25.92;;;13.20;;
8036;SDS011;4061;51.360;7.340;2022-08-01T05:29:41;27.17;;;14.80;;
8036;SDS011;4061;51.360;7.340;2022-08-01T05:32:09;26.73;;;14.23;;
8036;SDS011;4061;51.360;7.340;2022-08-01T05:34:36;25.85;;;14.82;;
8036;SDS011;4061;51.360;7.340;2022-08-01T05:37:03;27.08;;;15.27;;
8036;SDS011;4061;51.360;7.340;2022-08-01T05:39:32;26.17;;;14.52;;
8036;SDS011;4061;51.360;7.340;2022-08-01T05:41:59;22.40;;;13.07;;
8036;SDS011;4061;51.360;7.340;2022-08-01T05:44:26;24.30;;;14.10;;
8036;SDS011;4061;51.360;7.340;2022-08-01T05:46:53;29.15;;;14.40;;
8036;SDS011;4061;51.360;7.340;2022-08-01T05:49:20;27.30;;;13.20;;
8036;SDS011;4061;51.360;7.340;2022-08-01T05:51:47;31.65;;;14.50;;
8036;SDS011;4061;51.360;7.340;2022-08-01T05:54:15;26.80;;;14.82;;
8036;SDS011;4061;51.360;7.340;2022-08-01T05:56:43;29.02;;;16.05;;
8036;SDS011;4061;51.360;7.340;2022-08-01T05:59:10;26.17;;;15.13;;
8036;SDS011;4061;51.360;7.340;2022-08-01T06:01:37;30.73;;;17.05;;
8036;SDS011;4061;51.360;7.340;2022-08-01T06:04:05;30.65;;;17.63;;
8036;SDS011;4061;51.360;7.340;2022-08-01T06:06:32;30.40;;;16.45;;
8036;SDS011;4061;51.360;7.340;2022-08-01T06:08:59;31.42;;;16.63;;
8036;SDS011;4061;51.360;7.340;2022-08-01T06:11:26;36.00;;;18.20;;
8036;SDS011;4061;51.360;7.340;2022-08-01T06:13:55;33.53;;;16.60;;
8036;SDS011;4061;51.360;7.340;2022-08-01T06:16:22;33.88;;;17.30;;
8036;SDS011;4061;51.360;7.340;2022-08-01T06:18:49;33.08;;;16.05;;
8036;SDS011;4061;51.360;7.340;2022-08-01T06:21:16;35.83;;;16.92;;
8036;SDS011;4061;51.360;7.340;2022-08-01T06:23:44;30.85;;;15.18;;
8036;SDS011;4061;51.360;7.340;2022-08-01T06:26:11;34.60;;;18.08;;
8036;SDS011;4061;51.360;7.340;2022-08-01T06:28:38;28.50;;;16.75;;
8036;SDS011;4061;51.360;7.340;2022-08-01T06:31:07;32.17;;;16.95;;
8036;SDS011;4061;51.360;7.340;2022-08-01T06:33:35;30.02;;;15.48;;
8036;SDS011;4061;51.360;7.340;2022-08-01T06:36:02;23.05;;;14.52;;
8036;SDS011;4061;51.360;7.340;2022-08-01T06:38:29;19.27;;;11.85;;
8036;SDS011;4061;51.360;7.340;2022-08-01T06:40:57;18.85;;;11.43;;
8036;SDS011;4061;51.360;7.340;2022-08-01T06:43:24;19.67;;;10.80;;
8036;SDS011;4061;51.360;7.340;2022-08-01T06:45:51;16.55;;;10.40;;
8036;SDS011;4061;51.360;7.340;2022-08-01T06:48:19;17.65;;;9.90;;
8036;SDS011;4061;51.360;7.340;2022-08-01T06:50:47;15.73;;;8.93;;
8036;SDS011;4061;51.360;7.340;2022-08-01T06:53:32;18.48;;;10.70;;
8036;SDS011;4061;51.360;7.340;2022-08-01T06:55:59;15.32;;;9.07;;
8036;SDS011;4061;51.360;7.340;2022-08-01T06:58:26;15.15;;;9.40;;
8036;SDS011;4061;51.360;7.340;2022-08-01T07:00:54;14.68;;;8.57;;
8036;SDS011;4061;51.360;7.340;2022-08-01T07:03:22;17.70;;;9.77;;
8036;SDS011;4061;51.360;7.340;2022-08-01T07:05:49;14.40;;;8.07;;
8036;SDS011;4061;51.360;7.340;2022-08-01T07:08:16;13.05;;;8.30;;
8036;SDS011;4061;51.360;7.340;2022-08-01T07:10:44;12.98;;;7.85;;
8036;SDS011;4061;51.360;7.340;2022-08-01T07:13:11;10.18;;;7.45;;
8036;SDS011;4061;51.360;7.340;2022-08-01T07:15:39;8.88;;;7.20;;
8036;SDS011;4061;51.360;7.340;2022-08-01T07:18:07;13.75;;;8.13;;
8036;SDS011;4061;51.360;7.340;2022-08-01T07:20:35;12.02;;;7.40;;
8036;SDS011;4061;51.360;7.340;2022-08-01T07:23:04;10.85;;;7.43;;
8036;SDS011;4061;51.360;7.340;2022-08-01T07:25:31;10.38;;;6.80;;
8036;SDS011;4061;51.360;7.340;2022-08-01T07:27:58;10.82;;;6.78;;
8036;SDS011;4061;51.360;7.340;2022-08-01T07:30:25;9.38;;;7.03;;
8036;SDS011;4061;51.360;7.340;2022-08-01T07:32:52;8.07;;;5.68;;
8036;SDS011;4061;51.360;7.340;2022-08-01T07:35:20;7.70;;;6.30;;
8036;SDS011;4061;51.360;7.340;2022-08-01T07:37:48;13.40;;;6.88;;
8036;SDS011;4061;51.360;7.340;2022-08-01T07:40:16;10.38;;;6.75;;
8036;SDS011;4061;51.360;7.340;2022-08-01T07:42:44;10.75;;;7.78;;
8036;SDS011;4061;51.360;7.340;2022-08-01T07:45:11;8.30;;;7.18;;
8036;SDS011;4061;51.360;7.340;2022-08-01T07:47:38;12.98;;;5.82;;
8036;SDS011;4061;51.360;7.340;2022-08-01T07:50:06;8.88;;;6.63;;
8036;SDS011;4061;51.360;7.340;2022-08-01T07:52:33;7.53;;;5.43;;
8036;SDS011;4061;51.360;7.340;2022-08-01T07:55:02;8.30;;;6.25;;
8036;SDS011;4061;51.360;7.340;2022-08-01T07:57:30;7.22;;;5.50;;
8036;SDS011;4061;51.360;7.340;2022-08-01T07:59:57;6.47;;;4.90;;
8036;SDS011;4061;51.360;7.340;2022-08-01T08:02:24;5.00;;;4.43;;
8036;SDS011;4061;51.360;7.340;2022-08-01T08:04:51;4.13;;;3.72;;
8036;SDS011;4061;51.360;7.340;2022-08-01T08:07:18;4.13;;;3.70;;
8036;SDS011;4061;51.360;7.340;2022-08-01T08:09:45;3.70;;;3.22;;
8036;SDS011;4061;51.360;7.340;2022-08-01T08:12:14;3.63;;;3.10;;
8036;SDS011;4061;51.360;7.340;2022-08-01T08:14:41;5.28;;;3.00;;
8036;SDS011;4061;51.360;7.340;2022-08-01T08:17:08;2.95;;;2.75;;
8036;SDS011;4061;51.360;7.340;2022-08-01T08:19:35;3.58;;;2.90;;
8036;SDS011;4061;51.360;7.340;2022-08-01T08:22:04;2.30;;;2.10;;
8036;SDS011;4061;51.360;7.340;2022-08-01T08:24:31;1.67;;;1.58;;
8036;SDS011;4061;51.360;7.340;2022-08-01T08:26:59;5.53;;;1.92;;
8036;SDS011;4061;51.360;7.340;2022-08-01T08:29:28;4.35;;;1.75;;
8036;SDS011;4061;51.360;7.340;2022-08-01T08:31:57;1.33;;;1.30;;
8036;SDS011;4061;51.360;7.340;2022-08-01T08:34:25;2.22;;;1.38;;
8036;SDS011;4061;51.360;7.340;2022-08-01T08:36:53;1.92;;;1.45;;
8036;SDS011;4061;51.360;7.340;2022-08-01T08:39:21;1.60;;;1.50;;
8036;SDS011;4061;51.360;7.340;2022-08-01T08:41:48;3.53;;;1.30;;
8036;SDS011;4061;51.360;7.340;2022-08-01T08:44:16;1.40;;;1.30;;
8036;SDS011;4061;51.360;7.340;2022-08-01T08:46:46;1.73;;;0.98;;
8036;SDS011;4061;51.360;7.340;2022-08-01T08:49:15;1.50;;;1.40;;
8036;SDS011;4061;51.360;7.340;2022-08-01T08:51:42;3.55;;;1.33;;
8036;SDS011;4061;51.360;7.340;2022-08-01T08:54:11;1.83;;;1.70;;
8036;SDS011;4061;51.360;7.340;2022-08-01T08:56:38;2.35;;;1.40;;
8036;SDS011;4061;51.360;7.340;2022-08-01T08:59:06;1.23;;;1.10;;
8036;SDS011;4061;51.360;7.340;2022-08-01T09:01:33;1.90;;;0.95;;
8036;SDS011;4061;51.360;7.340;2022-08-01T09:04:02;0.90;;;0.90;;
8036;SDS011;4061;51.360;7.340;2022-08-01T09:06:29;1.38;;;1.27;;
8036;SDS011;4061;51.360;7.340;2022-08-01T09:08:56;1.30;;;0.95;;
8036;SDS011;4061;51.360;7.340;2022-08-01T09:11:24;1.17;;;1.05;;
8036;SDS011;4061;51.360;7.340;2022-08-01T09:14:01;0.90;;;0.90;;
8036;SDS011;4061;51.360;7.340;2022-08-01T09:16:29;1.08;;;0.90;;
8036;SDS011;4061;51.360;7.340;2022-08-01T09:19:07;1.08;;;1.02;;
8036;SDS011;4061;51.360;7.340;2022-08-01T09:21:34;1.48;;;0.90;;
8036;SDS011;4061;51.360;7.340;2022-08-01T09:24:02;1.52;;;1.20;;
8036;SDS011;4061;51.360;7.340;2022-08-01T09:26:31;0.98;;;0.98;;
8036;SDS011;4061;51.360;7.340;2022-08-01T09:28:59;2.67;;;0.93;;
8036;SDS011;4061;51.360;7.340;2022-08-01T09:31:28;1.23;;;1.13;;
8036;SDS011;4061;51.360;7.340;2022-08-01T09:33:56;0.88;;;0.80;;
8036;SDS011;4061;51.360;7.340;2022-08-01T09:39:13;0.95;;;0.95;;
8036;SDS011;4061;51.360;7.340;2022-08-01T09:41:40;1.40;;;1.40;;
8036;SDS011;4061;51.360;7.340;2022-08-01T09:44:08;1.35;;;1.25;;
8036;SDS011;4061;51.360;7.340;2022-08-01T09:46:35;4.00;;;1.88;;
8036;SDS011;4061;51.360;7.340;2022-08-01T09:49:03;3.45;;;2.47;;
8036;SDS011;4061;51.360;7.340;2022-08-01T09:51:31;2.40;;;2.20;;
8036;SDS011;4061;51.360;7.340;2022-08-01T09:53:59;3.38;;;2.28;;
8036;SDS011;4061;51.360;7.340;2022-08-01T09:56:28;4.13;;;2.40;;
8036;SDS011;4061;51.360;7.340;2022-08-01T09:59:02;6.03;;;2.40;;
8036;SDS011;4061;51.360;7.340;2022-08-01T10:01:40;3.10;;;2.80;;
8036;SDS011;4061;51.360;7.340;2022-08-01T10:04:09;2.50;;;2.30;;
8036;SDS011;4061;51.360;7.340;2022-08-01T10:06:38;2.30;;;2.17;;
8036;SDS011;4061;51.360;7.340;2022-08-01T10:09:07;2.05;;;1.95;;
8036;SDS011;4061;51.360;7.340;2022-08-01T10:11:37;1.98;;;1.88;;
8036;SDS011;4061;51.360;7.340;2022-08-01T10:14:05;2.47;;;2.28;;
8036;SDS011;4061;51.360;7.340;2022-08-01T10:16:33;1.50;;;1.50;;
8036;SDS011;4061;51.360;7.340;2022-08-01T10:19:01;1.83;;;1.70;;
8036;SDS011;4061;51.360;7.340;2022-08-01T10:21:28;2.45;;;1.67;;
8036;SDS011;4061;51.360;7.340;2022-08-01T10:23:58;1.17;;;1.17;;
8036;SDS011;4061;51.360;7.340;2022-08-01T10:26:26;1.00;;;0.90;;
8036;SDS011;4061;51.360;7.340;2022-08-01T10:28:57;0.60;;;0.60;;
8036;SDS011;4061;51.360;7.340;2022-08-01T10:31:24;0.90;;;0.90;;
8036;SDS011;4061;51.360;7.340;2022-08-01T10:33:56;0.90;;;0.90;;
8036;SDS011;4061;51.360;7.340;2022-08-01T10:36:23;1.52;;;1.05;;
8036;SDS011;4061;51.360;7.340;2022-08-01T10:38:51;3.42;;;0.95;;
8036;SDS011;4061;51.360;7.340;2022-08-01T10:41:18;1.42;;;1.33;;
8036;SDS011;4061;51.360;7.340;2022-08-01T10:43:46;1.73;;;1.60;;
8036;SDS011;4061;51.360;7.340;2022-08-01T10:46:14;1.90;;;1.80;;
8036;SDS011;4061;51.360;7.340;2022-08-01T10:48:44;2.00;;;1.90;;
8036;SDS011;4061;51.360;7.340;2022-08-01T10:51:12;1.95;;;1.85;;
8036;SDS011;4061;51.360;7.340;2022-08-01T10:53:45;2.05;;;1.95;;
8036;SDS011;4061;51.360;7.340;2022-08-01T10:56:13;1.85;;;1.70;;
8036;SDS011;4061;51.360;7.340;2022-08-01T10:58:42;1.00;;;1.00;;
8036;SDS011;4061;51.360;7.340;2022-08-01T11:04:01;1.50;;;1.40;;
8036;SDS011;4061;51.360;7.340;2022-08-01T11:06:39;1.38;;;1.30;;
8036;SDS011;4061;51.360;7.340;2022-08-01T11:12:03;1.52;;;1.33;;
8036;SDS011;4061;51.360;7.340;2022-08-01T11:14:34;2.58;;;1.42;;
8036;SDS011;4061;51.360;7.340;2022-08-01T11:17:39;1.00;;;1.00;;
8036;SDS011;4061;51.360;7.340;2022-08-01T11:20:14;2.75;;;1.13;;
8036;SDS011;4061;51.360;7.340;2022-08-01T11:28:48;1.80;;;1.30;;
8036;SDS011;4061;51.360;7.340;2022-08-01T11:31:40;2.03;;;1.80;;
8036;SDS011;4061;51.360;7.340;2022-08-01T11:34:07;1.13;;;1.13;;
8036;SDS011;4061;51.360;7.340;2022-08-01T11:36:36;2.45;;;1.08;;
8036;SDS011;4061;51.360;7.340;2022-08-01T11:39:10;1.55;;;1.52;;
8036;SDS011;4061;51.360;7.340;2022-08-01T11:41:37;4.22;;;1.38;;
8036;SDS011;4061;51.360;7.340;2022-08-01T11:44:05;2.83;;;1.40;;
8036;SDS011;4061;51.360;7.340;2022-08-01T11:49:24;2.40;;;0.90;;
8036;SDS011;4061;51.360;7.340;2022-08-01T11:51:58;1.30;;;0.70;;
8036;SDS011;4061;51.360;7.340;2022-08-01T11:54:26;1.65;;;0.90;;
8036;SDS011;4061;51.360;7.340;2022-08-01T11:56:58;0.90;;;0.90;;
8036;SDS011;4061;51.360;7.340;2022-08-01T11:59:26;1.40;;;0.70;;
8036;SDS011;4061;51.360;7.340;2022-08-01T12:01:53;0.85;;;0.60;;
8036;SDS011;4061;51.360;7.340;2022-08-01T12:04:20;2.05;;;1.13;;
8036;SDS011;4061;51.360;7.340;2022-08-01T12:06:47;1.23;;;1.10;;
8036;SDS011;4061;51.360;7.340;2022-08-01T12:09:17;0.70;;;0.70;;
8036;SDS011;4061;51.360;7.340;2022-08-01T12:11:45;0.75;;;0.68;;
8036;SDS011;4061;51.360;7.340;2022-08-01T12:14:15;1.88;;;0.80;;
8036;SDS011;4061;51.360;7.340;2022-08-01T12:16:47;0.82;;;0.82;;
8036;SDS011;4061;51.360;7.340;2022-08-01T12:19:17;1.30;;;1.08;;
8036;SDS011;4061;51.360;7.340;2022-08-01T12:21:45;0.70;;;0.70;;
8036;SDS011;4061;51.360;7.340;2022-08-01T12:24:12;0.90;;;0.90;;
8036;SDS011;4061;51.360;7.340;2022-08-01T12:26:41;2.42;;;0.63;;
8036;SDS011;4061;51.360;7.340;2022-08-01T12:29:08;0.43;;;0.43;;
8036;SDS011;4061;51.360;7.340;2022-08-01T12:31:35;0.85;;;0.50;;
8036;SDS011;4061;51.360;7.340;2022-08-01T12:36:52;0.43;;;0.43;;
8036;SDS011;4061;51.360;7.340;2022-08-01T12:39:21;3.40;;;0.50;;
8036;SDS011;4061;51.360;7.340;2022-08-01T12:41:49;0.43;;;0.43;;
8036;SDS011;4061;51.360;7.340;2022-08-01T12:44:17;0.95;;;0.50;;
8036;SDS011;4061;51.360;7.340;2022-08-01T12:46:44;0.50;;;0.50;;
8036;SDS011;4061;51.360;7.340;2022-08-01T12:49:11;0.50;;;0.50;;
8036;SDS011;4061;51.360;7.340;2022-08-01T12:51:38;3.58;;;0.50;;
8036;SDS011;4061;51.360;7.340;2022-08-01T12:54:05;0.70;;;0.70;;
8036;SDS011;4061;51.360;7.340;2022-08-01T12:56:35;1.48;;;0.60;;
8036;SDS011;4061;51.360;7.340;2022-08-01T13:01:46;0.57;;;0.57;;
8036;SDS011;4061;51.360;7.340;2022-08-01T13:04:13;0.60;;;0.60;;
8036;SDS011;4061;51.360;7.340;2022-08-01T13:06:40;0.57;;;0.57;;
8036;SDS011;4061;51.360;7.340;2022-08-01T13:09:08;0.47;;;0.47;;
8036;SDS011;4061;51.360;7.340;2022-08-01T13:11:36;0.82;;;0.57;;
8036;SDS011;4061;51.360;7.340;2022-08-01T13:14:04;0.60;;;0.60;;
8036;SDS011;4061;51.360;7.340;2022-08-01T13:16:31;2.08;;;0.82;;
8036;SDS011;4061;51.360;7.340;2022-08-01T13:19:00;0.70;;;0.70;;
8036;SDS011;4061;51.360;7.340;2022-08-01T13:21:27;0.50;;;0.50;;
8036;SDS011;4061;51.360;7.340;2022-08-01T13:24:03;0.40;;;0.40;;
8036;SDS011;4061;51.360;7.340;2022-08-01T13:26:39;0.85;;;0.43;;
8036;SDS011;4061;51.360;7.340;2022-08-01T13:29:06;0.47;;;0.40;;
8036;SDS011;4061;51.360;7.340;2022-08-01T13:31:35;0.40;;;0.40;;
8036;SDS011;4061;51.360;7.340;2022-08-01T13:34:04;1.95;;;0.40;;
8036;SDS011;4061;51.360;7.340;2022-08-01T13:36:32;0.40;;;0.30;;
8036;SDS011;4061;51.360;7.340;2022-08-01T13:38:59;0.55;;;0.50;;
8036;SDS011;4061;51.360;7.340;2022-08-01T13:41:44;0.80;;;0.80;;
8036;SDS011;4061;51.360;7.340;2022-08-01T13:44:12;2.17;;;0.50;;
8036;SDS011;4061;51.360;7.340;2022-08-01T13:46:40;0.40;;;0.40;;
8036;SDS011;4061;51.360;7.340;2022-08-01T13:49:10;0.30;;;0.30;;
8036;SDS011;4061;51.360;7.340;2022-08-01T13:51:38;4.60;;;0.50;;
8036;SDS011;4061;51.360;7.340;2022-08-01T13:54:05;0.45;;;0.22;;
8036;SDS011;4061;51.360;7.340;2022-08-01T13:56:33;0.57;;;0.30;;
8036;SDS011;4061;51.360;7.340;2022-08-01T13:59:00;0.35;;;0.30;;
8036;SDS011;4061;51.360;7.340;2022-08-01T14:01:28;0.25;;;0.25;;
8036;SDS011;4061;51.360;7.340;2022-08-01T14:03:55;0.28;;;0.28;;
8036;SDS011;4061;51.360;7.340;2022-08-01T14:06:23;0.28;;;0.28;;
8036;SDS011;4061;51.360;7.340;2022-08-01T14:08:50;0.30;;;0.30;;
8036;SDS011;4061;51.360;7.340;2022-08-01T14:11:18;2.85;;;0.30;;
8036;SDS011;4061;51.360;7.340;2022-08-01T14:13:45;0.40;;;0.40;;
8036;SDS011;4061;51.360;7.340;2022-08-01T14:16:12;0.20;;;0.20;;
8036;SDS011;4061;51.360;7.340;2022-08-01T14:18:39;0.30;;;0.30;;
8036;SDS011;4061;51.360;7.340;2022-08-01T14:21:07;0.30;;;0.30;;
8036;SDS011;4061;51.360;7.340;2022-08-01T14:23:35;0.30;;;0.30;;
8036;SDS011;4061;51.360;7.340;2022-08-01T14:26:03;0.22;;;0.22;;
8036;SDS011;4061;51.360;7.340;2022-08-01T14:28:30;0.65;;;0.40;;
8036;SDS011;4061;51.360;7.340;2022-08-01T14:30:58;2.40;;;0.30;;
8036;SDS011;4061;51.360;7.340;2022-08-01T14:33:25;0.38;;;0.38;;
8036;SDS011;4061;51.360;7.340;2022-08-01T14:35:53;0.45;;;0.45;;
8036;SDS011;4061;51.360;7.340;2022-08-01T14:38:20;1.80;;;0.52;;
8036;SDS011;4061;51.360;7.340;2022-08-01T14:40:48;0.40;;;0.40;;
8036;SDS011;4061;51.360;7.340;2022-08-01T14:43:16;0.40;;;0.40;;
8036;SDS011;4061;51.360;7.340;2022-08-01T14:45:43;1.75;;;0.45;;
8036;SDS011;4061;51.360;7.340;2022-08-01T14:48:14;0.40;;;0.40;;
8036;SDS011;4061;51.360;7.340;2022-08-01T14:50:41;0.55;;;0.55;;
8036;SDS011;4061;51.360;7.340;2022-08-01T14:53:08;0.80;;;0.43;;
8036;SDS011;4061;51.360;7.340;2022-08-01T14:55:36;2.30;;;1.17;;
8036;SDS011;4061;51.360;7.340;2022-08-01T14:58:04;0.50;;;0.50;;
8036;SDS011;4061;51.360;7.340;2022-08-01T15:00:31;0.70;;;0.65;;
8036;SDS011;4061;51.360;7.340;2022-08-01T15:02:59;0.55;;;0.55;;
8036;SDS011;4061;51.360;7.340;2022-08-01T15:05:26;0.70;;;0.70;;
8036;SDS011;4061;51.360;7.340;2022-08-01T15:07:55;1.65;;;0.57;;
8036;SDS011;4061;51.360;7.340;2022-08-01T15:10:22;1.77;;;0.60;;
8036;SDS011;4061;51.360;7.340;2022-08-01T15:12:49;0.50;;;0.50;;
8036;SDS011;4061;51.360;7.340;2022-08-01T15:15:18;2.97;;;0.60;;
8036;SDS011;4061;51.360;7.340;2022-08-01T15:17:46;0.47;;;0.47;;
8036;SDS011;4061;51.360;7.340;2022-08-01T15:20:13;0.52;;;0.52;;
8036;SDS011;4061;51.360;7.340;2022-08-01T15:22:40;2.28;;;0.40;;
8036;SDS011;4061;51.360;7.340;2022-08-01T15:25:07;0.43;;;0.43;;
8036;SDS011;4061;51.360;7.340;2022-08-01T15:27:34;0.55;;;0.55;;
8036;SDS011;4061;51.360;7.340;2022-08-01T15:30:02;1.02;;;0.50;;
8036;SDS011;4061;51.360;7.340;2022-08-01T15:32:31;1.50;;;0.60;;
8036;SDS011;4061;51.360;7.340;2022-08-01T15:34:58;0.47;;;0.47;;